createdAt,value
2023-04-07T00:01:10.201Z,2.42
2023-04-07T00:03:41.150Z,2.17
2023-04-07T00:06:09.207Z,2.40
2023-04-07T00:08:37.406Z,2.30
2023-04-07T00:11:07.212Z,2.45
2023-04-07T00:13:35.168Z,2.60
2023-04-07T00:16:03.272Z,2.10
2023-04-07T00:18:31.318Z,2.45
2023-04-07T00:20:59.608Z,2.70
2023-04-07T00:23:27.871Z,2.33
2023-04-07T00:25:56.061Z,2.53
2023-04-07T00:28:25.732Z,1.98
2023-04-07T00:30:53.884Z,2.20
2023-04-07T00:33:22.069Z,1.73
2023-04-07T00:35:50.149Z,2.42
2023-04-07T00:38:18.190Z,2.50
2023-04-07T00:40:46.404Z,2.03
2023-04-07T00:45:44.185Z,2.20
2023-04-07T00:48:12.284Z,2.38
2023-04-07T00:50:40.890Z,2.15
2023-04-07T00:53:09.774Z,2.28
2023-04-07T00:55:38.110Z,2.33
2023-04-07T00:58:06.222Z,2.55
2023-04-07T01:00:39.453Z,2.60
2023-04-07T01:03:12.621Z,2.10
2023-04-07T01:05:49.373Z,2.10
2023-04-07T01:08:22.366Z,2.10
2023-04-07T01:10:54.267Z,2.13
2023-04-07T01:13:28.909Z,1.92
2023-04-07T01:16:10.660Z,1.85
2023-04-07T01:18:49.272Z,1.85
2023-04-07T01:21:19.540Z,2.38
2023-04-07T01:23:58.980Z,1.52
2023-04-07T01:26:30.252Z,1.63
2023-04-07T01:29:25.599Z,1.58
2023-04-07T01:31:57.760Z,1.50
2023-04-07T01:34:28.002Z,1.73
2023-04-07T01:36:57.238Z,1.55
2023-04-07T01:39:27.722Z,1.65
2023-04-07T01:41:57.648Z,1.25
2023-04-07T01:44:28.610Z,1.75
2023-04-07T01:46:57.730Z,1.70
2023-04-07T01:49:27.275Z,1.58
2023-04-07T01:51:56.444Z,1.33
2023-04-07T01:54:25.185Z,1.48
2023-04-07T01:56:54.096Z,1.45
2023-04-07T01:59:22.786Z,1.50
2023-04-07T02:01:52.861Z,1.30
2023-04-07T02:04:29.216Z,1.48
2023-04-07T02:07:03.046Z,1.33
2023-04-07T02:09:41.593Z,1.20
2023-04-07T02:12:12.934Z,1.55
2023-04-07T02:14:46.251Z,1.58
2023-04-07T02:17:19.303Z,1.60
2023-04-07T02:19:48.808Z,2.20
2023-04-07T02:22:17.532Z,2.10
2023-04-07T02:24:45.776Z,2.17
2023-04-07T02:27:14.230Z,2.28
2023-04-07T02:29:42.326Z,2.90
2023-04-07T02:32:10.513Z,2.03
2023-04-07T02:34:39.999Z,2.63
2023-04-07T02:37:08.294Z,2.42
2023-04-07T02:39:36.432Z,3.35
2023-04-07T02:42:04.693Z,2.83
2023-04-07T02:44:32.705Z,3.40
2023-04-07T02:47:00.825Z,3.13
2023-04-07T02:49:28.841Z,2.92
2023-04-07T02:51:58.326Z,3.33
2023-04-07T02:54:26.296Z,2.88
2023-04-07T02:56:55.191Z,3.55
2023-04-07T02:59:25.025Z,3.78
2023-04-07T03:01:53.091Z,3.22
2023-04-07T03:06:50.109Z,3.00
2023-04-07T03:09:19.804Z,3.40
2023-04-07T03:11:47.770Z,3.92
2023-04-07T03:14:16.263Z,4.82
2023-04-07T03:16:47.718Z,4.20
2023-04-07T03:19:17.354Z,3.80
2023-04-07T03:21:48.800Z,3.80
2023-04-07T03:24:17.111Z,2.83
2023-04-07T03:26:48.645Z,3.80
2023-04-07T03:29:25.135Z,3.40
2023-04-07T03:31:53.932Z,3.30
2023-04-07T03:34:25.467Z,3.08
2023-04-07T03:36:53.520Z,3.75
2023-04-07T03:39:23.055Z,3.97
2023-04-07T03:41:57.401Z,3.38
2023-04-07T03:44:28.410Z,2.75
2023-04-07T03:46:57.104Z,2.65
2023-04-07T03:49:27.105Z,2.70
2023-04-07T03:51:56.272Z,2.47
2023-04-07T03:54:24.321Z,2.40
2023-04-07T03:56:52.781Z,2.40
2023-04-07T03:59:25.706Z,2.58
2023-04-07T04:02:02.128Z,1.77
2023-04-07T04:04:30.699Z,2.72
2023-04-07T04:06:59.550Z,2.03
2023-04-07T04:09:42.124Z,2.03
2023-04-07T04:12:10.273Z,2.20
2023-04-07T04:14:46.758Z,1.63
2023-04-07T04:17:16.131Z,1.85
2023-04-07T04:19:47.590Z,1.75
2023-04-07T04:22:24.883Z,2.10
2023-04-07T04:24:56.069Z,1.73
2023-04-07T04:27:26.058Z,1.95
2023-04-07T04:30:02.509Z,1.83
2023-04-07T04:32:36.969Z,1.80
2023-04-07T04:35:07.540Z,1.70
2023-04-07T04:37:41.763Z,1.60
2023-04-07T04:40:13.698Z,1.80
2023-04-07T04:42:42.241Z,1.63
2023-04-07T04:45:13.903Z,1.60
2023-04-07T04:47:47.207Z,1.77
2023-04-07T04:52:45.887Z,1.30
2023-04-07T04:57:49.253Z,1.80
2023-04-07T05:00:25.148Z,1.40
2023-04-07T05:02:58.836Z,1.77
2023-04-07T05:05:28.053Z,1.52
2023-04-07T05:07:57.466Z,1.75
2023-04-07T05:10:30.285Z,1.90
2023-04-07T05:12:58.431Z,1.58
2023-04-07T05:15:27.738Z,1.52
2023-04-07T05:17:56.284Z,1.85
2023-04-07T05:20:27.772Z,1.60
2023-04-07T05:22:56.457Z,1.73
2023-04-07T05:25:31.133Z,1.60
2023-04-07T05:28:02.313Z,1.65
2023-04-07T05:30:31.884Z,1.50
2023-04-07T05:33:00.477Z,2.17
2023-04-07T05:35:39.559Z,1.73
2023-04-07T05:38:07.777Z,1.80
2023-04-07T05:40:37.740Z,1.80
2023-04-07T05:43:08.753Z,2.25
2023-04-07T05:45:38.510Z,2.53
2023-04-07T05:48:07.801Z,2.50
2023-04-07T05:50:43.853Z,2.70
2023-04-07T05:53:16.887Z,2.38
2023-04-07T05:55:45.094Z,2.30
2023-04-07T05:58:21.140Z,2.13
2023-04-07T06:00:54.034Z,2.75
2023-04-07T06:03:22.866Z,2.38
2023-04-07T06:06:09.287Z,3.17
2023-04-07T06:11:05.657Z,2.45
2023-04-07T06:13:35.094Z,1.90
2023-04-07T06:16:06.518Z,2.20
2023-04-07T06:18:34.821Z,3.35
2023-04-07T06:21:03.017Z,2.67
2023-04-07T06:23:31.112Z,3.50
2023-04-07T06:25:59.161Z,3.42
2023-04-07T06:28:27.301Z,2.60
2023-04-07T06:30:58.289Z,2.80
2023-04-07T06:33:28.653Z,2.92
2023-04-07T06:35:58.383Z,3.10
2023-04-07T06:38:26.613Z,2.67
2023-04-07T06:40:54.603Z,3.42
2023-04-07T06:43:22.650Z,2.42
2023-04-07T06:46:02.269Z,2.85
2023-04-07T06:48:31.663Z,2.58
2023-04-07T06:50:59.755Z,2.22
2023-04-07T06:53:27.751Z,2.42
2023-04-07T06:56:04.541Z,2.88
2023-04-07T06:58:32.671Z,2.78
2023-04-07T07:01:01.315Z,2.75
2023-04-07T07:03:29.656Z,2.75
2023-04-07T07:05:59.736Z,3.30
2023-04-07T07:08:29.000Z,2.53
2023-04-07T07:10:57.084Z,2.55
2023-04-07T07:13:26.354Z,2.95
2023-04-07T07:15:55.012Z,3.17
2023-04-07T07:18:23.214Z,2.70
2023-04-07T07:20:51.689Z,2.47
2023-04-07T07:25:48.917Z,2.58
2023-04-07T07:28:16.989Z,3.05
2023-04-07T07:30:45.356Z,3.10
2023-04-07T07:38:09.667Z,2.40
2023-04-07T07:40:38.987Z,2.63
2023-04-07T07:43:07.522Z,2.55
2023-04-07T07:45:35.649Z,1.98
2023-04-07T07:48:03.844Z,2.85
2023-04-07T07:50:32.370Z,2.65
2023-04-07T07:53:00.407Z,2.20
2023-04-07T07:55:28.569Z,1.92
2023-04-07T07:57:57.934Z,1.60
2023-04-07T08:00:26.079Z,1.30
2023-04-07T08:02:54.235Z,1.33
2023-04-07T08:05:22.370Z,1.60
2023-04-07T08:07:52.104Z,1.02
2023-04-07T08:10:21.882Z,1.13
2023-04-07T08:12:49.987Z,0.80
2023-04-07T08:15:19.653Z,0.88
2023-04-07T08:17:47.751Z,1.20
2023-04-07T08:20:16.426Z,1.25
2023-04-07T08:22:44.398Z,1.05
2023-04-07T08:25:12.646Z,0.82
2023-04-07T08:27:40.789Z,0.95
2023-04-07T08:30:09.426Z,1.27
2023-04-07T08:32:40.103Z,1.23
2023-04-07T08:35:08.572Z,1.08
2023-04-07T08:37:36.789Z,1.13
2023-04-07T08:40:05.750Z,1.02
2023-04-07T08:42:35.092Z,1.15
2023-04-07T08:45:06.397Z,0.50
2023-04-07T08:47:36.029Z,0.90
2023-04-07T08:50:08.328Z,0.63
2023-04-07T08:52:43.185Z,0.70
2023-04-07T08:55:12.180Z,0.65
2023-04-07T08:57:41.090Z,0.50
2023-04-07T09:00:11.265Z,0.70
2023-04-07T09:02:41.635Z,0.82
2023-04-07T09:05:11.572Z,0.90
2023-04-07T09:07:41.292Z,0.68
2023-04-07T09:10:10.186Z,0.82
2023-04-07T09:12:39.069Z,0.95
2023-04-07T09:15:08.509Z,0.93
2023-04-07T09:17:36.724Z,0.80
2023-04-07T09:20:05.699Z,1.08
2023-04-07T09:22:42.358Z,1.38
2023-04-07T09:25:11.956Z,0.88
2023-04-07T09:27:40.002Z,0.93
2023-04-07T09:30:16.191Z,0.73
2023-04-07T09:32:44.632Z,1.33
2023-04-07T09:35:12.776Z,0.77
2023-04-07T09:37:42.680Z,0.70
2023-04-07T09:40:10.974Z,0.57
2023-04-07T09:42:46.623Z,0.93
2023-04-07T09:45:33.791Z,0.63
2023-04-07T09:48:07.706Z,0.98
2023-04-07T09:50:37.808Z,0.85
2023-04-07T09:53:07.189Z,0.52
2023-04-07T09:55:36.523Z,0.70
2023-04-07T09:58:06.453Z,0.82
2023-04-07T10:00:34.927Z,0.85
2023-04-07T10:03:04.641Z,0.90
2023-04-07T10:05:34.045Z,0.85
2023-04-07T10:08:03.471Z,0.60
2023-04-07T10:10:33.307Z,0.65
2023-04-07T10:13:02.730Z,0.70
2023-04-07T10:15:31.799Z,1.13
2023-04-07T10:18:01.026Z,0.50
2023-04-07T10:20:30.982Z,0.88
2023-04-07T10:23:08.161Z,0.73
2023-04-07T10:25:40.155Z,0.85
2023-04-07T10:28:11.971Z,0.75
2023-04-07T10:30:41.221Z,1.00
2023-04-07T10:33:09.319Z,1.30
2023-04-07T10:36:14.192Z,1.25
2023-04-07T10:38:42.653Z,1.05
2023-04-07T10:43:58.748Z,0.90
2023-04-07T10:46:26.789Z,0.80
2023-04-07T10:49:10.190Z,0.70
2023-04-07T10:51:38.896Z,1.15
2023-04-07T10:54:22.839Z,0.85
2023-04-07T10:57:14.631Z,1.00
2023-04-07T11:00:17.715Z,0.98
2023-04-07T11:02:46.108Z,0.82
2023-04-07T11:08:02.597Z,1.02
2023-04-07T11:10:30.853Z,1.17
2023-04-07T11:13:03.808Z,0.80
2023-04-07T11:15:34.169Z,0.80
2023-04-07T11:18:17.120Z,0.57
2023-04-07T11:20:53.924Z,1.13
2023-04-07T11:23:25.298Z,1.10
2023-04-07T11:25:55.436Z,0.93
2023-04-07T11:28:23.468Z,1.02
2023-04-07T11:30:54.495Z,0.82
2023-04-07T11:33:23.866Z,0.55
2023-04-07T11:35:57.206Z,1.17
2023-04-07T11:38:27.382Z,1.02
2023-04-07T11:40:56.476Z,1.00
2023-04-07T11:43:26.483Z,0.77
2023-04-07T11:46:11.967Z,0.90
2023-04-07T11:48:42.486Z,1.23
2023-04-07T11:51:18.392Z,0.85
2023-04-07T11:53:48.114Z,0.82
2023-04-07T11:56:18.952Z,1.20
2023-04-07T11:58:51.050Z,0.82
2023-04-07T12:01:21.021Z,0.93
2023-04-07T12:03:58.799Z,0.85
2023-04-07T12:06:33.337Z,0.80
2023-04-07T12:09:02.018Z,0.65
2023-04-07T12:11:31.939Z,0.55
2023-04-07T12:14:00.312Z,0.80
2023-04-07T12:18:57.918Z,0.77
2023-04-07T12:21:26.836Z,0.82
2023-04-07T12:23:54.938Z,1.20
2023-04-07T12:26:23.541Z,0.73
2023-04-07T12:28:51.552Z,0.75
2023-04-07T12:31:19.632Z,0.90
2023-04-07T12:36:17.196Z,0.82
2023-04-07T12:41:13.756Z,0.88
2023-04-07T12:43:41.894Z,1.02
2023-04-07T12:46:09.962Z,1.15
2023-04-07T12:48:37.991Z,1.10
2023-04-07T12:51:07.716Z,1.20
2023-04-07T12:53:36.207Z,0.93
2023-04-07T12:56:04.425Z,0.85
2023-04-07T12:58:33.877Z,0.95
2023-04-07T13:01:02.133Z,1.00
2023-04-07T13:03:30.582Z,1.15
2023-04-07T13:06:01.361Z,0.80
2023-04-07T13:08:30.759Z,0.80
2023-04-07T13:10:58.901Z,0.82
2023-04-07T13:13:27.012Z,0.93
2023-04-07T13:15:55.093Z,0.82
2023-04-07T13:18:23.158Z,0.93
2023-04-07T13:21:06.277Z,1.13
2023-04-07T13:23:43.966Z,0.70
2023-04-07T13:26:12.718Z,0.90
2023-04-07T13:28:41.483Z,0.95
2023-04-07T13:31:11.876Z,0.77
2023-04-07T13:33:41.245Z,1.02
2023-04-07T13:36:09.394Z,0.90
2023-04-07T13:38:37.788Z,1.10
2023-04-07T13:43:35.657Z,0.93
2023-04-07T13:48:32.724Z,0.88
2023-04-07T13:51:01.113Z,0.68
2023-04-07T13:55:57.042Z,0.93
2023-04-07T13:58:26.399Z,0.90
2023-04-07T14:00:54.453Z,1.05
2023-04-07T14:03:22.769Z,0.68
2023-04-07T14:05:51.009Z,0.82
2023-04-07T14:08:19.180Z,1.80
2023-04-07T14:13:15.128Z,0.85
2023-04-07T14:15:44.540Z,0.65
2023-04-07T14:18:12.437Z,0.70
2023-04-07T14:20:40.550Z,0.52
2023-04-07T14:23:08.740Z,0.75
2023-04-07T14:25:36.738Z,0.47
2023-04-07T14:28:04.683Z,0.70
2023-04-07T14:30:34.442Z,0.60
2023-04-07T14:33:05.123Z,0.55
2023-04-07T14:35:33.428Z,1.08
2023-04-07T14:38:01.486Z,0.52
2023-04-07T14:40:29.701Z,0.40
2023-04-07T14:45:30.122Z,0.80
2023-04-07T14:47:58.249Z,0.93
2023-04-07T14:50:28.056Z,0.95
2023-04-07T14:52:57.531Z,0.70
2023-04-07T14:55:26.181Z,0.93
2023-04-07T14:57:54.295Z,0.60
2023-04-07T15:00:22.337Z,0.68
2023-04-07T15:02:50.794Z,1.05
2023-04-07T15:05:18.971Z,1.00
2023-04-07T15:07:50.730Z,1.08
2023-04-07T15:10:19.122Z,0.77
2023-04-07T15:12:48.765Z,0.77
2023-04-07T15:15:17.446Z,0.80
2023-04-07T15:17:45.586Z,0.63
2023-04-07T15:20:13.932Z,0.65
2023-04-07T15:22:42.119Z,0.82
2023-04-07T15:27:39.780Z,0.70
2023-04-07T15:32:36.241Z,0.93
2023-04-07T15:35:04.446Z,0.80
2023-04-07T15:37:32.346Z,0.70
2023-04-07T15:40:00.490Z,0.68
2023-04-07T15:42:31.959Z,0.80
2023-04-07T15:45:00.113Z,0.82
2023-04-07T15:47:27.955Z,0.80
2023-04-07T15:49:56.143Z,0.70
2023-04-07T15:52:25.090Z,0.60
2023-04-07T15:54:53.136Z,0.60
2023-04-07T15:57:22.182Z,0.70
2023-04-07T15:59:52.217Z,0.55
2023-04-07T16:02:20.518Z,0.47
2023-04-07T16:04:48.556Z,0.50
2023-04-07T16:07:16.641Z,0.63
2023-04-07T16:09:44.754Z,0.95
2023-04-07T16:12:12.858Z,0.68
2023-04-07T16:14:40.870Z,0.77
2023-04-07T16:17:10.266Z,0.52
2023-04-07T16:19:38.463Z,0.55
2023-04-07T16:22:06.423Z,0.50
2023-04-07T16:24:34.594Z,0.60
2023-04-07T16:27:04.283Z,1.42
2023-04-07T16:29:32.630Z,0.82
2023-04-07T16:32:00.647Z,2.03
2023-04-07T16:34:30.130Z,0.80
2023-04-07T16:36:58.570Z,0.98
2023-04-07T16:39:28.956Z,1.00
2023-04-07T16:41:57.620Z,0.73
2023-04-07T16:44:25.950Z,0.80
2023-04-07T16:46:53.977Z,0.80
2023-04-07T16:49:22.128Z,0.60
2023-04-07T16:51:51.457Z,0.63
2023-04-07T16:54:19.684Z,0.55
2023-04-07T16:56:49.717Z,1.23
2023-04-07T16:59:17.713Z,9.43
2023-04-07T17:01:46.147Z,1.38
2023-04-07T17:04:14.213Z,1.05
2023-04-07T17:06:42.804Z,0.85
2023-04-07T17:09:16.060Z,0.60
2023-04-07T17:11:44.136Z,2.65
2023-04-07T17:14:12.239Z,0.75
2023-04-07T17:16:40.657Z,1.33
2023-04-07T17:21:37.684Z,2.88
2023-04-07T17:24:07.832Z,5.65
2023-04-07T17:26:37.348Z,1.10
2023-04-07T17:29:05.706Z,1.83
2023-04-07T17:31:35.847Z,0.90
2023-04-07T17:34:04.017Z,1.75
2023-04-07T17:36:33.691Z,0.60
2023-04-07T17:39:02.760Z,0.55
2023-04-07T17:41:31.211Z,1.02
2023-04-07T17:44:00.620Z,0.52
2023-04-07T17:46:28.899Z,1.15
2023-04-07T17:51:25.975Z,3.65
2023-04-07T17:53:54.708Z,3.08
2023-04-07T17:56:24.537Z,1.42
2023-04-07T17:58:52.534Z,1.00
2023-04-07T18:01:22.413Z,2.28
2023-04-07T18:03:51.606Z,0.77
2023-04-07T18:06:20.038Z,0.88
2023-04-07T18:08:48.613Z,1.15
2023-04-07T18:11:17.283Z,1.60
2023-04-07T18:13:45.480Z,0.95
2023-04-07T18:16:18.712Z,0.75
2023-04-07T18:18:50.417Z,1.35
2023-04-07T18:21:18.337Z,0.60
2023-04-07T18:23:46.557Z,1.05
2023-04-07T18:26:14.828Z,1.85
2023-04-07T18:28:42.886Z,1.15
2023-04-07T18:31:11.095Z,0.52
2023-04-07T18:33:39.452Z,0.73
2023-04-07T18:36:09.433Z,1.50
2023-04-07T18:38:38.197Z,1.70
2023-04-07T18:41:07.722Z,0.50
2023-04-07T18:43:35.973Z,0.77
2023-04-07T18:46:04.259Z,0.82
2023-04-07T18:48:32.617Z,1.00
2023-04-07T18:51:00.589Z,1.85
2023-04-07T18:53:30.062Z,1.00
2023-04-07T18:55:57.975Z,0.50
2023-04-07T18:58:26.061Z,0.93
2023-04-07T19:00:54.689Z,0.80
2023-04-07T19:03:22.997Z,0.82
2023-04-07T19:08:20.929Z,0.70
2023-04-07T19:10:51.138Z,0.65
2023-04-07T19:13:20.127Z,2.65
2023-04-07T19:15:48.208Z,0.85
2023-04-07T19:18:16.651Z,0.77
2023-04-07T19:20:45.009Z,1.02
2023-04-07T19:28:13.877Z,1.05
2023-04-07T19:30:41.969Z,0.82
2023-04-07T19:33:10.411Z,0.73
2023-04-07T19:38:07.588Z,1.02
2023-04-07T19:40:35.506Z,0.88
2023-04-07T19:43:03.579Z,2.50
2023-04-07T19:45:33.032Z,0.80
2023-04-07T19:48:01.372Z,0.95
2023-04-07T19:50:29.579Z,0.70
2023-04-07T19:52:57.577Z,0.57
2023-04-07T19:55:26.028Z,1.50
2023-04-07T20:00:22.261Z,1.15
2023-04-07T20:02:51.936Z,1.05
2023-04-07T20:05:20.123Z,2.03
2023-04-07T20:07:48.203Z,2.88
2023-04-07T20:10:16.205Z,5.32
2023-04-07T20:12:44.281Z,2.95
2023-04-07T20:15:12.922Z,3.83
2023-04-07T20:17:41.182Z,1.92
2023-04-07T20:20:11.624Z,1.40
2023-04-07T20:22:39.710Z,1.77
2023-04-07T20:25:09.376Z,1.85
2023-04-07T20:27:38.606Z,3.22
2023-04-07T20:30:09.005Z,3.55
2023-04-07T20:32:37.185Z,1.05
2023-04-07T20:35:05.743Z,1.20
2023-04-07T20:37:35.284Z,2.20
2023-04-07T20:40:04.198Z,6.47
2023-04-07T20:42:32.350Z,1.80
2023-04-07T20:45:03.765Z,1.20
2023-04-07T20:47:32.166Z,1.30
2023-04-07T20:50:00.428Z,1.27
2023-04-07T20:52:29.318Z,1.60
2023-04-07T20:54:58.601Z,0.95
2023-04-07T20:57:26.814Z,1.23
2023-04-07T20:59:54.962Z,1.38
2023-04-07T21:04:51.161Z,1.23
2023-04-07T21:07:19.213Z,1.10
2023-04-07T21:09:47.123Z,1.52
2023-04-07T21:12:16.528Z,1.38
2023-04-07T21:14:45.817Z,1.40
2023-04-07T21:17:13.839Z,1.50
2023-04-07T21:19:42.190Z,1.58
2023-04-07T21:22:12.751Z,1.75
2023-04-07T21:24:40.890Z,1.48
2023-04-07T21:27:08.900Z,1.25
2023-04-07T21:29:40.281Z,1.02
2023-04-07T21:32:08.358Z,1.77
2023-04-07T21:34:36.305Z,1.08
2023-04-07T21:37:04.520Z,1.73
2023-04-07T21:39:33.987Z,1.55
2023-04-07T21:42:02.506Z,1.35
2023-04-07T21:44:30.465Z,1.83
2023-04-07T21:46:59.950Z,1.52
2023-04-07T21:49:27.870Z,1.77
2023-04-07T21:51:55.897Z,1.80
2023-04-07T21:54:25.039Z,1.83
2023-04-07T21:56:53.270Z,1.80
2023-04-07T21:59:21.250Z,1.27
2023-04-07T22:01:50.905Z,1.55
2023-04-07T22:04:21.780Z,1.70
2023-04-07T22:06:49.930Z,1.80
2023-04-07T22:09:17.905Z,1.60
2023-04-07T22:11:46.154Z,1.63
2023-04-07T22:14:14.186Z,1.70
2023-04-07T22:16:42.375Z,1.67
2023-04-07T22:19:10.394Z,1.52
2023-04-07T22:21:39.715Z,1.63
2023-04-07T22:24:07.813Z,1.90
2023-04-07T22:26:36.089Z,2.08
2023-04-07T22:29:04.520Z,2.40
2023-04-07T22:31:32.543Z,1.75
2023-04-07T22:34:00.485Z,1.58
2023-04-07T22:36:28.539Z,1.90
2023-04-07T22:38:57.938Z,1.58
2023-04-07T22:41:26.943Z,2.03
2023-04-07T22:43:55.320Z,2.15
2023-04-07T22:48:51.965Z,1.85
2023-04-07T22:51:20.048Z,1.42
2023-04-07T22:53:48.283Z,1.40
2023-04-07T22:56:17.793Z,1.50
2023-04-07T22:58:45.965Z,1.63
2023-04-07T23:01:14.021Z,1.80
2023-04-07T23:03:42.494Z,1.60
2023-04-07T23:08:38.511Z,1.70
2023-04-07T23:11:10.103Z,1.77
2023-04-07T23:13:39.674Z,1.67
2023-04-07T23:16:12.170Z,1.83
2023-04-07T23:18:41.005Z,1.90
2023-04-07T23:21:08.996Z,1.35
2023-04-07T23:23:39.076Z,1.73
2023-04-07T23:26:07.759Z,1.58
2023-04-07T23:28:36.001Z,1.63
2023-04-07T23:31:06.635Z,1.80
2023-04-07T23:33:34.874Z,1.58
2023-04-07T23:36:03.355Z,1.92
2023-04-07T23:38:31.549Z,1.85
2023-04-07T23:40:59.498Z,1.63
2023-04-07T23:43:27.756Z,1.63
2023-04-07T23:45:56.703Z,1.73
2023-04-07T23:48:26.578Z,1.80
2023-04-07T23:50:55.011Z,1.77
2023-04-07T23:58:20.123Z,1.23
